Delray, Michigan
Current Conditions -  °F | °C
As of 12:00 AM on Saturday 20 Dec 2014 (Local Time) from CYQG Reporting Station
Clear Clear  
Wind Chill: 21°   Ceiling: Unl
Heat Index: 21°   Visibility: 15mi
Dew Point: 18°   Wind: 2mph
Humidity: 86%   Direction: 230°SW
Pressure: 30.28"   Gusts: NA
Location:  42.2774°N, 83.1542°W
Report Text: CYQG 200500Z 23002KT 15SM SKC M06/M08 A3028 RMK FROIN SLP264
Loading
Personal Weather Stations






























Interactive Weather Map New forecast layout! Learn more

10-Day Weather Forecast

Advertisements
Track Severe Weather on mobile